Time;durP1;ratioP1;P1;durP2;ratioP2;P2;SDS_P1;SDS_P2;PMS_P1;PMS_P2;Temp;Humidity;BMP_temperature;BMP_pressure;BME280_temperature;BME280_humidity;BME280_pressure;Samples;Min_cycle;Max_cycle;Signal;HPM_P1;HPM_P2
2021/03/03 00:01:43;;;;;;;;;;;;;;;7.42;45.46;102868.22;6160848;23;19924;-78
2021/03/03 00:04:11;;;;;;;;;;;;;;;7.39;45.82;102866.41;6163829;23;20346;-78
2021/03/03 00:06:38;;;;;;;;;;;;;;;7.36;46.24;102858.47;6160919;23;20547;-78
2021/03/03 00:09:05;;;;;;;;;;;;;;;7.34;46.24;102854.03;6161307;23;19939;-78
2021/03/03 00:11:33;;;;;;;;;;;;;;;7.31;46.53;102852.22;6157025;23;19924;-78
2021/03/03 00:14:00;;;;;;;;;;;;;;;7.31;46.71;102857.50;6158298;23;20228;-78
2021/03/03 00:16:27;;;;;;;;;;;;;;;7.29;46.97;102851.31;6161147;23;19925;-78
2021/03/03 00:18:57;;;;;;;;;;;;;;;7.28;46.94;102844.28;6161769;23;19925;-78
2021/03/03 00:21:25;;;;;;;;;;;;;;;7.26;47.11;102843.34;6186233;23;20464;-78
2021/03/03 00:23:56;;;;;;;;;;;;;;;7.24;47.70;102843.31;6185415;23;19920;-78
2021/03/03 00:26:23;;;;;;;;;;;;;;;7.22;47.97;102837.16;6159868;23;19924;-78
2021/03/03 00:28:50;;;;;;;;;;;;;;;7.21;48.05;102839.72;6160176;23;19967;-78
2021/03/03 00:31:17;;;;;;;;;;;;;;;7.20;48.07;102838.84;6161060;23;19920;-78
2021/03/03 00:33:44;;;;;;;;;;;;;;;7.21;48.12;102830.09;6185686;23;19924;-78
2021/03/03 00:36:11;;;;;;;;;;;;;;;7.19;48.34;102837.06;6161800;23;20759;-80
2021/03/03 00:38:38;;;;;;;;;;;;;;;7.18;48.65;102831.78;6157106;23;19924;-78
2021/03/03 00:41:05;;;;;;;;;;;;;;;7.15;48.85;102840.50;6157694;23;19943;-78
2021/03/03 00:43:33;;;;;;;;;;;;;;;7.12;48.86;102825.53;6184286;23;19924;-78
2021/03/03 00:46:01;;;;;;;;;;;;;;;7.11;49.30;102834.28;6161016;23;19926;-78
2021/03/03 00:48:28;;;;;;;;;;;;;;;7.11;48.84;102830.78;6161194;23;19936;-78
2021/03/03 00:50:55;;;;;;;;;;;;;;;7.11;49.37;102829.00;6160254;23;19925;-78
2021/03/03 00:53:22;;;;;;;;;;;;;;;7.09;49.35;102827.22;6155871;23;20265;-78
2021/03/03 00:55:50;;;;;;;;;;;;;;;7.08;49.49;102828.09;6157209;23;19944;-78
2021/03/03 00:58:19;;;;;;;;;;;;;;;7.07;49.81;102815.78;6159416;23;19936;-78
2021/03/03 01:00:54;;;;;;;;;;;;;;;7.05;49.86;102817.47;6185816;23;19931;-78
2021/03/03 01:03:23;;;;;;;;;;;;;;;7.02;49.98;102823.56;6160457;23;19925;-78
2021/03/03 01:05:55;;;;;;;;;;;;;;;7.01;50.09;102819.16;6157966;23;19931;-78
2021/03/03 01:08:24;;;;;;;;;;;;;;;7.00;50.39;102813.88;6153529;23;19996;-78
2021/03/03 01:10:52;;;;;;;;;;;;;;;6.99;50.44;102815.63;6161207;23;19924;-78
2021/03/03 01:13:22;;;;;;;;;;;;;;;6.97;50.40;102823.50;6160003;23;19925;-78
2021/03/03 01:15:50;;;;;;;;;;;;;;;6.97;50.55;102817.31;6159897;23;19924;-78
2021/03/03 01:18:25;;;;;;;;;;;;;;;6.95;50.56;102812.03;6186410;23;19925;-78
2021/03/03 01:20:52;;;;;;;;;;;;;;;6.95;50.66;102808.53;6158848;23;19929;-77
2021/03/03 01:23:19;;;;;;;;;;;;;;;6.93;50.84;102810.22;6157997;23;19927;-78
2021/03/03 01:25:46;;;;;;;;;;;;;;;6.94;50.89;102809.38;6161685;23;19932;-78
2021/03/03 01:28:13;;;;;;;;;;;;;;;7.11;49.37;102812.34;6162010;23;19952;-78
2021/03/03 01:30:53;;;;;;;;;;;;;;;7.23;47.87;102796.78;6160169;23;19935;-78
2021/03/03 01:33:25;;;;;;;;;;;;;;;7.29;46.85;102802.19;6185417;23;19921;-78
2021/03/03 01:35:52;;;;;;;;;;;;;;;7.40;45.79;102805.00;6179864;23;20011;-78
2021/03/03 01:38:19;;;;;;;;;;;;;;;7.43;45.13;102799.81;6159147;23;19944;-77
2021/03/03 01:40:47;;;;;;;;;;;;;;;7.49;44.46;102804.28;6162184;23;19925;-78
2021/03/03 01:43:14;;;;;;;;;;;;;;;7.53;43.90;102800.84;6159648;23;20327;-78
2021/03/03 01:45:41;;;;;;;;;;;;;;;7.54;43.27;102796.47;6160468;23;19977;-78
2021/03/03 01:48:09;;;;;;;;;;;;;;;7.59;42.90;102794.78;6161249;23;19927;-78
2021/03/03 01:50:38;;;;;;;;;;;;;;;7.56;42.50;102790.34;6160663;23;19924;-77
2021/03/03 01:53:06;;;;;;;;;;;;;;;7.42;44.12;102790.13;6160719;23;19947;-78
2021/03/03 01:55:33;;;;;;;;;;;;;;;7.35;45.04;102780.31;6161633;23;19921;-77
2021/03/03 01:58:01;;;;;;;;;;;;;;;7.32;45.62;102785.56;6159892;23;19924;-78
2021/03/03 02:00:28;;;;;;;;;;;;;;;7.39;45.57;102776.00;6177509;23;19925;-77
2021/03/03 02:02:55;;;;;;;;;;;;;;;7.46;44.40;102768.25;6185181;23;19947;-77
2021/03/03 02:05:22;;;;;;;;;;;;;;;7.53;43.85;102758.72;6162627;23;19944;-78
2021/03/03 02:07:53;;;;;;;;;;;;;;;7.56;43.29;102760.50;6160840;23;19928;-77
2021/03/03 02:10:26;;;;;;;;;;;;;;;7.58;42.47;102750.91;6185191;23;19940;-79
2021/03/03 02:12:57;;;;;;;;;;;;;;;7.62;42.37;102742.19;6155104;23;20265;-78
2021/03/03 02:15:24;;;;;;;;;;;;;;;7.61;41.73;102736.00;6180686;23;19932;-77
2021/03/03 02:17:52;;;;;;;;;;;;;;;7.65;41.37;102729.94;6159575;23;19929;-78
2021/03/03 02:20:23;;;;;;;;;;;;;;;7.62;41.08;102727.25;6161098;23;19987;-78
2021/03/03 02:22:57;;;;;;;;;;;;;;;7.68;41.07;102729.09;6160692;23;19921;-77
2021/03/03 02:25:27;;;;;;;;;;;;;;;7.66;40.86;102725.56;6160583;23;19983;-78
2021/03/03 02:27:55;;;;;;;;;;;;;;;7.68;40.90;102726.47;6153551;23;20350;-77
2021/03/03 02:30:23;;;;;;;;;;;;;;;7.65;40.65;102724.66;6157075;23;19927;-77
2021/03/03 02:32:51;;;;;;;;;;;;;;;7.53;41.04;102726.22;6158649;23;19925;-78
2021/03/03 02:35:19;;;;;;;;;;;;;;;7.38;41.82;102729.47;6159491;23;19920;-78
2021/03/03 02:37:47;;;;;;;;;;;;;;;7.28;42.27;102725.81;6158723;23;20336;-78
2021/03/03 02:40:15;;;;;;;;;;;;;;;7.19;42.90;102723.00;6157090;23;19921;-78
2021/03/03 02:42:44;;;;;;;;;;;;;;;7.12;43.51;102716.75;6156194;23;19995;-78
2021/03/03 02:45:12;;;;;;;;;;;;;;;7.07;43.97;102711.38;6161820;23;19935;-78
2021/03/03 02:47:39;;;;;;;;;;;;;;;7.02;44.24;102720.06;6163157;23;20262;-77
2021/03/03 02:50:08;;;;;;;;;;;;;;;7.00;44.70;102714.78;6162401;23;19944;-78
2021/03/03 02:52:51;;;;;;;;;;;;;;;6.95;45.44;102712.03;6162950;23;19924;-78
2021/03/03 02:55:19;;;;;;;;;;;;;;;6.94;45.92;102712.00;6159155;23;19996;-78
2021/03/03 02:57:47;;;;;;;;;;;;;;;6.90;46.04;102715.44;6156518;23;19925;-78
2021/03/03 03:00:16;;;;;;;;;;;;;;;6.88;46.20;102718.06;6162467;23;19940;-78
2021/03/03 03:02:46;;;;;;;;;;;;;;;6.86;46.75;102716.25;6165303;23;19928;-78
2021/03/03 03:05:14;;;;;;;;;;;;;;;6.85;47.03;102712.72;6186553;23;20404;-78
2021/03/03 03:07:45;;;;;;;;;;;;;;;6.82;47.25;102715.28;6157772;23;19924;-78
2021/03/03 03:10:14;;;;;;;;;;;;;;;6.79;47.50;102713.50;6155396;23;19928;-78
2021/03/03 03:12:43;;;;;;;;;;;;;;;6.78;47.69;102711.72;6185105;23;19928;-77
2021/03/03 03:15:13;;;;;;;;;;;;;;;6.77;47.71;102715.19;6164124;23;19921;-77
2021/03/03 03:17:41;;;;;;;;;;;;;;;6.75;48.04;102714.28;6162855;23;20389;-78
2021/03/03 03:20:09;;;;;;;;;;;;;;;6.73;48.50;102712.47;6162994;23;19921;-77
2021/03/03 03:22:37;;;;;;;;;;;;;;;6.72;48.64;102713.34;6159571;23;19920;-78
2021/03/03 03:25:04;;;;;;;;;;;;;;;6.68;48.76;102700.97;6158970;23;19952;-78
2021/03/03 03:27:32;;;;;;;;;;;;;;;6.65;48.85;102701.81;6162189;23;19973;-78
2021/03/03 03:30:00;;;;;;;;;;;;;;;6.64;49.18;102706.19;6161401;23;20051;-77
2021/03/03 03:32:29;;;;;;;;;;;;;;;6.63;49.19;102708.75;6162359;23;19927;-78
2021/03/03 03:34:57;;;;;;;;;;;;;;;6.62;49.31;102713.16;6163755;23;19940;-77
2021/03/03 03:37:25;;;;;;;;;;;;;;;6.61;49.46;102708.72;6157231;23;19925;-78
2021/03/03 03:39:52;;;;;;;;;;;;;;;6.60;49.64;102713.97;6181577;23;19921;-77
2021/03/03 03:42:22;;;;;;;;;;;;;;;6.59;49.60;102709.56;6161045;23;19921;-77
2021/03/03 03:44:50;;;;;;;;;;;;;;;6.58;49.95;102699.88;6161479;23;19924;-77
2021/03/03 03:47:18;;;;;;;;;;;;;;;6.58;49.79;102700.78;6162003;23;19932;-77
2021/03/03 03:49:46;;;;;;;;;;;;;;;6.58;49.91;102694.63;6162652;23;20473;-78
2021/03/03 03:52:16;;;;;;;;;;;;;;;6.60;50.00;102698.19;6157087;23;19948;-78
2021/03/03 03:54:50;;;;;;;;;;;;;;;6.59;50.00;102696.41;6162526;23;19940;-77
2021/03/03 03:57:18;;;;;;;;;;;;;;;6.61;50.07;102690.31;6163731;23;19928;-77
2021/03/03 03:59:45;;;;;;;;;;;;;;;6.62;50.05;102691.22;6159400;23;19931;-77
2021/03/03 04:02:12;;;;;;;;;;;;;;;6.62;50.27;102688.59;6188259;23;19928;-77
2021/03/03 04:04:40;;;;;;;;;;;;;;;6.62;50.08;102688.59;6157663;23;19932;-77
2021/03/03 04:07:08;;;;;;;;;;;;;;;6.61;50.12;102685.06;6158253;23;19921;-77
2021/03/03 04:09:35;;;;;;;;;;;;;;;6.62;50.34;102685.97;6162199;23;19921;-77
2021/03/03 04:12:03;;;;;;;;;;;;;;;6.62;50.42;102684.22;6162009;23;19976;-79
2021/03/03 04:14:30;;;;;;;;;;;;;;;6.61;50.66;102676.31;6162377;23;20731;-77
2021/03/03 04:16:57;;;;;;;;;;;;;;;6.60;50.46;102677.16;6159934;23;20337;-77
2021/03/03 04:19:24;;;;;;;;;;;;;;;6.61;50.69;102678.94;6182071;23;19924;-77
2021/03/03 04:21:51;;;;;;;;;;;;;;;6.60;50.55;102669.25;6154278;23;19928;-77
2021/03/03 04:24:19;;;;;;;;;;;;;;;6.61;50.94;102669.28;6185565;23;19979;-77
2021/03/03 04:26:46;;;;;;;;;;;;;;;6.75;49.73;102666.94;6161785;23;20358;-77
2021/03/03 04:29:13;;;;;;;;;;;;;;;6.88;48.43;102661.91;6158044;23;19992;-77
2021/03/03 04:31:40;;;;;;;;;;;;;;;6.96;47.28;102658.56;6163318;23;19931;-77
2021/03/03 04:34:07;;;;;;;;;;;;;;;7.06;46.16;102653.47;6155662;23;19924;-78
2021/03/03 04:36:34;;;;;;;;;;;;;;;7.14;45.30;102654.47;6157702;23;19920;-77
2021/03/03 04:39:01;;;;;;;;;;;;;;;7.17;44.63;102644.00;6161103;23;20381;-78
2021/03/03 04:41:29;;;;;;;;;;;;;;;7.20;43.93;102635.28;6162660;23;19935;-77
2021/03/03 04:43:56;;;;;;;;;;;;;;;7.25;43.68;102634.50;6162782;23;19921;-77
2021/03/03 04:46:22;;;;;;;;;;;;;;;7.14;44.29;102641.31;6182424;23;20488;-77
2021/03/03 04:48:50;;;;;;;;;;;;;;;7.07;45.45;102632.41;6157116;23;19944;-77
2021/03/03 04:51:16;;;;;;;;;;;;;;;7.05;46.24;102634.16;6160414;23;19931;-77
2021/03/03 04:53:43;;;;;;;;;;;;;;;7.06;46.46;102635.03;6160090;23;19940;-77
2021/03/03 04:56:10;;;;;;;;;;;;;;;7.14;45.23;102623.78;6185762;23;19924;-77
2021/03/03 04:58:38;;;;;;;;;;;;;;;7.19;44.52;102615.94;6160385;23;19972;-78
2021/03/03 05:01:05;;;;;;;;;;;;;;;7.25;43.77;102613.44;6182432;23;19921;-77
2021/03/03 05:03:35;;;;;;;;;;;;;;;7.30;43.04;102610.84;6181842;23;19921;-77
2021/03/03 05:06:06;;;;;;;;;;;;;;;7.36;42.89;102605.69;6185680;23;19920;-77
2021/03/03 05:08:33;;;;;;;;;;;;;;;7.31;42.43;102603.00;6182608;23;19931;-77
2021/03/03 05:11:00;;;;;;;;;;;;;;;7.32;42.08;102606.50;6160132;23;19931;-78
2021/03/03 05:13:27;;;;;;;;;;;;;;;7.37;41.50;102602.22;6159801;23;19935;-77
2021/03/03 05:15:55;;;;;;;;;;;;;;;7.38;41.28;102603.97;6153859;23;19929;-77
2021/03/03 05:18:22;;;;;;;;;;;;;;;7.39;41.07;102600.47;6159657;23;19945;-78
2021/03/03 05:20:49;;;;;;;;;;;;;;;7.43;40.73;102594.41;6160833;23;19944;-77
2021/03/03 05:23:25;;;;;;;;;;;;;;;7.43;40.67;102590.88;6162023;23;20321;-77
2021/03/03 05:25:52;;;;;;;;;;;;;;;7.44;40.45;102590.00;6162907;23;19921;-77
2021/03/03 05:28:18;;;;;;;;;;;;;;;7.28;40.65;102589.78;6158277;23;19935;-77
2021/03/03 05:30:45;;;;;;;;;;;;;;;7.14;41.04;102573.78;6154631;23;19995;-77
2021/03/03 05:33:21;;;;;;;;;;;;;;;7.06;41.98;102577.13;6159151;23;20340;-78
2021/03/03 05:35:48;;;;;;;;;;;;;;;6.97;42.66;102578.75;6163520;23;19921;-77
2021/03/03 05:38:15;;;;;;;;;;;;;;;6.93;43.42;102576.03;6160875;23;19924;-77
2021/03/03 05:40:42;;;;;;;;;;;;;;;6.87;43.84;102574.19;6160486;23;19928;-77
2021/03/03 05:43:09;;;;;;;;;;;;;;;6.86;44.39;102574.19;6156531;23;19924;-76
2021/03/03 05:45:37;;;;;;;;;;;;;;;6.84;44.82;102586.41;6155973;23;19921;-77
2021/03/03 05:48:05;;;;;;;;;;;;;;;6.79;45.33;102581.94;6161652;23;19920;-76
2021/03/03 05:50:33;;;;;;;;;;;;;;;6.78;45.45;102582.81;6161862;23;19928;-76
2021/03/03 05:53:00;;;;;;;;;;;;;;;6.76;46.08;102570.47;6185309;23;19975;-76
2021/03/03 05:55:27;;;;;;;;;;;;;;;6.75;46.33;102568.69;6161447;23;19928;-76
2021/03/03 05:57:54;;;;;;;;;;;;;;;6.72;46.38;102571.28;6178600;23;19925;-76
2021/03/03 06:00:22;;;;;;;;;;;;;;;6.71;46.64;102559.91;6157485;23;19944;-76
2021/03/03 06:02:51;;;;;;;;;;;;;;;6.71;46.87;102566.88;6183610;23;19970;-76
2021/03/03 06:05:18;;;;;;;;;;;;;;;6.72;47.17;102558.13;6162584;23;19944;-74
2021/03/03 06:07:47;;;;;;;;;;;;;;;6.70;47.32;102560.75;6184525;23;20401;-73
2021/03/03 06:10:14;;;;;;;;;;;;;;;6.68;47.70;102556.31;6158442;23;20345;-74
2021/03/03 06:12:44;;;;;;;;;;;;;;;6.68;47.78;102553.69;6156001;23;20487;-76
2021/03/03 06:15:12;;;;;;;;;;;;;;;6.68;47.82;102553.69;6162406;23;19925;-75
2021/03/03 06:17:41;;;;;;;;;;;;;;;6.67;48.17;102533.50;6162242;23;19920;-77
2021/03/03 06:20:09;;;;;;;;;;;;;;;6.67;48.31;102531.75;6186003;23;19931;-78
2021/03/03 06:22:36;;;;;;;;;;;;;;;6.68;48.41;102525.63;6162709;23;19999;-77
2021/03/03 06:25:19;;;;;;;;;;;;;;;6.69;48.44;102527.41;6158173;23;19925;-81
2021/03/03 06:27:46;;;;;;;;;;;;;;;6.70;48.53;102530.91;6157763;23;19958;-80
2021/03/03 06:30:39;;;;;;;;;;;;;;;6.75;48.75;102540.69;6161799;23;19931;-83
2021/03/03 06:33:06;;;;;;;;;;;;;;;6.77;48.80;102532.81;6163529;23;19944;-77
2021/03/03 06:35:38;;;;;;;;;;;;;;;6.81;48.74;102534.63;6163381;23;19925;-77
2021/03/03 06:38:05;;;;;;;;;;;;;;;6.85;48.70;102538.19;6161321;23;19921;-77
2021/03/03 06:40:34;;;;;;;;;;;;;;;6.88;48.64;102535.59;6155905;23;19928;-80
2021/03/03 06:43:16;;;;;;;;;;;;;;;6.89;48.68;102548.78;6158756;23;19921;-80
2021/03/03 06:45:43;;;;;;;;;;;;;;;6.93;48.92;102531.31;6186097;23;19936;-80
2021/03/03 06:48:10;;;;;;;;;;;;;;;6.95;48.98;102541.00;6163488;23;20685;-80
2021/03/03 06:50:56;;;;;;;;;;;;;;;6.98;48.90;102534.91;6163414;23;19924;-79
2021/03/03 06:53:30;;;;;;;;;;;;;;;6.96;49.04;102534.88;6158818;23;19921;-79
2021/03/03 06:55:58;;;;;;;;;;;;;;;6.97;49.20;102530.50;6157489;23;19983;-76
2021/03/03 06:58:26;;;;;;;;;;;;;;;7.01;49.13;102531.44;6162755;23;19935;-74
2021/03/03 07:00:59;;;;;;;;;;;;;;;7.03;49.16;102532.34;6185763;23;19925;-74
2021/03/03 07:03:32;;;;;;;;;;;;;;;7.06;49.15;102529.75;6188240;23;19969;-74
2021/03/03 07:06:00;;;;;;;;;;;;;;;7.05;49.29;102533.25;6162314;23;20169;-76
2021/03/03 07:08:28;;;;;;;;;;;;;;;7.08;49.38;102536.81;6158826;23;20461;-76
2021/03/03 07:10:56;;;;;;;;;;;;;;;7.11;49.38;102531.59;6163013;23;19924;-75
2021/03/03 07:13:37;;;;;;;;;;;;;;;7.10;49.26;102532.44;6185786;23;19936;-75
2021/03/03 07:16:05;;;;;;;;;;;;;;;7.12;49.43;102530.75;6161473;23;19924;-76
2021/03/03 07:18:37;;;;;;;;;;;;;;;7.16;49.26;102531.69;6162174;23;19944;-76
2021/03/03 07:37:26;;;;;;;;;;;;;;;7.83;44.12;102515.03;5820411;24;19946;-80
2021/03/03 07:40:03;;;;;;;;;;;;;;;7.92;42.86;102516.91;6070459;23;20117;-79
2021/03/03 07:42:32;;;;;;;;;;;;;;;7.95;42.51;102507.28;6101734;23;20410;-79
2021/03/03 07:45:08;;;;;;;;;;;;;;;8.02;41.89;102499.44;6100581;23;19929;-80
2021/03/03 07:47:36;;;;;;;;;;;;;;;7.95;43.36;102498.50;6101636;23;19926;-78
2021/03/03 07:50:05;;;;;;;;;;;;;;;7.91;44.07;102500.19;6072918;23;19921;-77
2021/03/03 07:52:34;;;;;;;;;;;;;;;7.89;44.63;102504.59;6097807;23;19949;-79
2021/03/03 07:55:02;;;;;;;;;;;;;;;7.95;44.15;102499.38;6100666;23;19946;-79
2021/03/03 07:57:30;;;;;;;;;;;;;;;8.08;42.95;102496.88;6100966;23;19972;-76
2021/03/03 07:59:57;;;;;;;;;;;;;;;8.18;42.55;102490.84;6128211;23;19921;-76
2021/03/03 08:02:42;;;;;;;;;;;;;;;8.27;41.48;102492.66;6182836;23;19921;-77
2021/03/03 08:05:10;;;;;;;;;;;;;;;8.38;40.92;102490.13;6182127;23;19920;-77
2021/03/03 08:07:38;;;;;;;;;;;;;;;8.51;40.27;102486.78;6160911;23;20338;-77
2021/03/03 08:10:28;;;;;;;;;;;;;;;8.57;39.64;102493.88;6162406;23;19951;-77
2021/03/03 08:12:57;;;;;;;;;;;;;;;8.61;39.21;102493.03;6185995;23;19921;-77
2021/03/03 08:15:42;;;;;;;;;;;;;;;8.66;39.05;102485.16;6161857;23;19920;-76
2021/03/03 08:18:17;;;;;;;;;;;;;;;8.69;38.42;102479.91;6156379;23;19920;-75
2021/03/03 08:20:46;;;;;;;;;;;;;;;8.70;39.04;102481.69;6182370;23;19925;-76
2021/03/03 08:23:37;;;;;;;;;;;;;;;8.74;38.38;102478.19;6160354;23;19924;-76
2021/03/03 08:26:05;;;;;;;;;;;;;;;8.75;39.06;102477.31;6185660;23;19982;-76
2021/03/03 08:28:34;;;;;;;;;;;;;;;8.73;40.12;102479.06;6152176;23;19935;-76
2021/03/03 08:31:29;;;;;;;;;;;;;;;8.74;40.28;102476.41;6109616;23;19948;-76
2021/03/03 08:33:58;;;;;;;;;;;;;;;8.72;40.00;102469.38;6159195;23;20000;-78
2021/03/03 08:36:49;;;;;;;;;;;;;;;8.66;40.98;102464.94;6161114;23;19929;-75
2021/03/03 08:39:26;;;;;;;;;;;;;;;8.69;41.29;102464.06;6157296;23;19925;-75
2021/03/03 08:41:55;;;;;;;;;;;;;;;8.75;40.89;102456.22;6185645;23;20275;-76
2021/03/03 08:44:22;;;;;;;;;;;;;;;8.78;41.67;102461.50;6157283;23;19921;-75
2021/03/03 08:46:50;;;;;;;;;;;;;;;8.82;41.60;102459.78;6180266;23;19924;-75
2021/03/03 08:49:28;;;;;;;;;;;;;;;8.85;42.05;102468.59;6162268;23;19927;-76
2021/03/03 08:52:15;;;;;;;;;;;;;;;8.99;41.62;102459.91;6162319;23;19981;-76
2021/03/03 08:54:43;;;;;;;;;;;;;;;9.13;41.68;102458.22;6152300;23;20310;-76
2021/03/03 08:57:31;;;;;;;;;;;;;;;9.12;41.98;102462.59;6161613;23;19921;-75
2021/03/03 09:00:00;;;;;;;;;;;;;;;9.19;42.47;102455.59;6148743;23;20343;-76
2021/03/03 09:02:37;;;;;;;;;;;;;;;9.22;42.05;102447.72;6159983;23;19925;-76
2021/03/03 09:05:09;;;;;;;;;;;;;;;9.21;42.52;102451.22;6161816;23;19992;-76
2021/03/03 09:07:36;;;;;;;;;;;;;;;9.22;42.67;102453.00;6162938;23;19951;-76
2021/03/03 09:10:04;;;;;;;;;;;;;;;9.23;42.50;102444.22;6159196;23;19956;-76
2021/03/03 09:12:32;;;;;;;;;;;;;;;9.30;42.59;102446.00;6180645;23;19924;-76
2021/03/03 09:15:01;;;;;;;;;;;;;;;9.28;42.48;102446.84;6152839;23;19924;-76
2021/03/03 09:17:30;;;;;;;;;;;;;;;9.27;43.43;102455.66;6159481;23;19925;-76
2021/03/03 09:19:58;;;;;;;;;;;;;;;9.32;43.02;102447.75;6162491;23;19925;-76
2021/03/03 09:22:27;;;;;;;;;;;;;;;9.38;43.01;102448.66;6159785;23;19925;-76
2021/03/03 09:24:55;;;;;;;;;;;;;;;9.39;43.17;102445.16;6161327;23;20342;-76
2021/03/03 09:27:22;;;;;;;;;;;;;;;9.36;43.50;102438.97;6156108;23;19924;-76
2021/03/03 09:29:50;;;;;;;;;;;;;;;9.32;43.18;102432.78;6156836;23;19971;-78
2021/03/03 09:32:32;;;;;;;;;;;;;;;9.38;43.33;102431.94;6184689;23;19928;-79
2021/03/03 09:35:06;;;;;;;;;;;;;;;9.42;43.66;102431.94;6185018;23;19931;-77
2021/03/03 09:37:37;;;;;;;;;;;;;;;9.44;43.34;102424.03;6184222;23;19935;-77
2021/03/03 09:40:05;;;;;;;;;;;;;;;9.55;43.37;102424.09;6158236;23;19924;-77
2021/03/03 09:42:39;;;;;;;;;;;;;;;9.56;43.50;102421.44;6154375;23;19920;-79
2021/03/03 09:45:08;;;;;;;;;;;;;;;9.55;43.46;102421.47;6183236;23;20011;-80
2021/03/03 09:47:36;;;;;;;;;;;;;;;9.61;43.20;102418.81;6161407;23;19959;-77
2021/03/03 09:50:06;;;;;;;;;;;;;;;9.62;43.62;102410.88;6185555;23;19936;-77
2021/03/03 09:52:34;;;;;;;;;;;;;;;9.70;43.81;102412.69;6163579;23;19959;-76
2021/03/03 09:55:02;;;;;;;;;;;;;;;9.72;43.42;102406.53;6160539;23;19931;-77
2021/03/03 09:57:28;;;;;;;;;;;;;;;9.78;43.46;102400.34;6159791;23;19921;-76
2021/03/03 09:59:56;;;;;;;;;;;;;;;9.83;43.61;102397.75;6161438;23;19928;-76
2021/03/03 10:02:24;;;;;;;;;;;;;;;9.87;43.82;102389.81;6165082;23;19944;-76
2021/03/03 10:04:54;;;;;;;;;;;;;;;9.99;43.16;102396.00;6187834;23;19925;-76
2021/03/03 10:07:23;;;;;;;;;;;;;;;10.00;43.38;102400.41;6163919;23;20259;-76
2021/03/03 10:09:51;;;;;;;;;;;;;;;10.02;43.63;102390.72;6160459;23;19921;-76
2021/03/03 10:12:19;;;;;;;;;;;;;;;10.08;43.61;102394.22;6160370;23;20004;-76
2021/03/03 10:14:53;;;;;;;;;;;;;;;10.09;43.31;102385.44;6164329;23;19931;-76
2021/03/03 10:17:27;;;;;;;;;;;;;;;10.10;43.72;102384.56;6187239;23;19924;-76
2021/03/03 10:19:55;;;;;;;;;;;;;;;10.16;43.39;102375.72;6162787;23;19924;-76
2021/03/03 10:22:22;;;;;;;;;;;;;;;10.20;43.71;102376.63;6161366;23;19995;-76
2021/03/03 10:24:55;;;;;;;;;;;;;;;10.17;43.37;102366.94;6161082;23;19921;-76
2021/03/03 10:27:22;;;;;;;;;;;;;;;10.27;43.65;102371.34;6188341;23;19920;-76
2021/03/03 10:29:49;;;;;;;;;;;;;;;10.39;43.47;102366.97;6163500;23;19928;-76
2021/03/03 10:32:16;;;;;;;;;;;;;;;10.40;43.01;102353.72;6189550;23;19931;-76
2021/03/03 10:34:43;;;;;;;;;;;;;;;10.48;43.45;102350.19;6165261;23;19932;-76
2021/03/03 10:37:22;;;;;;;;;;;;;;;10.68;42.89;102347.53;6161277;23;19935;-76
2021/03/03 10:39:50;;;;;;;;;;;;;;;10.71;43.11;102348.38;6160094;23;19921;-76
2021/03/03 10:42:21;;;;;;;;;;;;;;;10.86;42.31;102343.91;6163991;23;19932;-77
2021/03/03 10:44:52;;;;;;;;;;;;;;;10.84;42.42;102341.28;6164533;23;19932;-76
2021/03/03 10:47:37;;;;;;;;;;;;;;;10.85;42.77;102343.06;6166009;23;19927;-76
2021/03/03 10:50:12;;;;;;;;;;;;;;;10.78;42.71;102336.00;6162534;23;20014;-76
2021/03/03 10:52:40;;;;;;;;;;;;;;;10.72;43.48;102330.75;6155847;23;19924;-76
2021/03/03 10:55:19;;;;;;;;;;;;;;;10.75;42.87;102320.13;6185824;23;19968;-76
2021/03/03 10:58:00;;;;;;;;;;;;;;;10.72;43.05;102313.09;6164017;23;19925;-77
2021/03/03 11:00:29;;;;;;;;;;;;;;;10.89;43.19;102315.69;6163352;23;19924;-76
2021/03/03 11:03:05;;;;;;;;;;;;;;;10.90;43.23;102301.56;6162300;23;19924;-76
2021/03/03 11:05:32;;;;;;;;;;;;;;;10.94;43.09;102307.72;6158837;23;20031;-76
2021/03/03 11:08:05;;;;;;;;;;;;;;;10.78;43.26;102297.19;6155580;23;19924;-76
2021/03/03 11:10:32;;;;;;;;;;;;;;;10.86;42.55;102293.63;6161873;23;19925;-76
2021/03/03 11:13:00;;;;;;;;;;;;;;;10.96;41.48;102290.06;6164249;23;20376;-76
2021/03/03 11:15:27;;;;;;;;;;;;;;;11.08;40.28;102282.06;6161578;23;19944;-76
2021/03/03 11:17:54;;;;;;;;;;;;;;;11.18;39.45;102282.88;6164506;23;19955;-76
2021/03/03 11:20:21;;;;;;;;;;;;;;;11.33;38.48;102281.91;6180640;23;20290;-76
2021/03/03 11:22:48;;;;;;;;;;;;;;;11.46;37.68;102278.31;6155539;23;19940;-76
2021/03/03 11:25:15;;;;;;;;;;;;;;;11.68;36.83;102282.56;6161437;23;19972;-76
2021/03/03 11:27:43;;;;;;;;;;;;;;;11.70;36.79;102286.06;6184655;23;20345;-76
2021/03/03 11:30:11;;;;;;;;;;;;;;;11.51;38.20;102282.69;6161074;23;19921;-76
2021/03/03 11:32:38;;;;;;;;;;;;;;;11.33;39.10;102279.25;6159776;23;20343;-77
2021/03/03 11:35:08;;;;;;;;;;;;;;;11.41;39.52;102271.25;6181131;23;20022;-76
2021/03/03 11:37:35;;;;;;;;;;;;;;;11.48;39.39;102272.09;6159850;23;19960;-76
2021/03/03 11:40:03;;;;;;;;;;;;;;;11.48;39.02;102270.34;6163383;23;19931;-77
2021/03/03 11:42:30;;;;;;;;;;;;;;;11.56;38.11;102268.50;6164240;23;19924;-77
2021/03/03 11:44:58;;;;;;;;;;;;;;;11.65;37.58;102264.94;6160899;23;19920;-76
2021/03/03 11:47:25;;;;;;;;;;;;;;;11.70;36.70;102257.81;6157559;23;19932;-76
2021/03/03 11:49:52;;;;;;;;;;;;;;;11.68;36.77;102254.28;6156051;23;19976;-76
2021/03/03 11:52:22;;;;;;;;;;;;;;;11.64;36.33;102241.94;6184734;23;19920;-76
2021/03/03 11:54:49;;;;;;;;;;;;;;;11.71;36.11;102246.28;6187368;23;19924;-77
2021/03/03 11:57:16;;;;;;;;;;;;;;;11.75;36.28;102240.09;6162467;23;19928;-76
2021/03/03 11:59:43;;;;;;;;;;;;;;;11.82;36.73;102237.38;6186355;23;19940;-76
2021/03/03 12:02:11;;;;;;;;;;;;;;;11.76;36.95;102233.88;6156182;23;19940;-77
2021/03/03 12:04:38;;;;;;;;;;;;;;;11.66;37.49;102233.97;6156541;23;19925;-76
2021/03/03 12:07:05;;;;;;;;;;;;;;;11.58;38.02;102231.38;6184471;23;19921;-76
2021/03/03 12:09:32;;;;;;;;;;;;;;;11.58;38.28;102224.34;6161526;23;19927;-76
2021/03/03 12:11:59;;;;;;;;;;;;;;;11.60;38.66;102208.41;6187482;23;19924;-77
2021/03/03 12:14:26;;;;;;;;;;;;;;;11.60;38.65;102203.13;6161075;23;19931;-76
2021/03/03 12:16:54;;;;;;;;;;;;;;;11.53;39.21;102204.94;6179393;23;20397;-76
2021/03/03 12:19:22;;;;;;;;;;;;;;;11.68;39.08;102189.81;6159337;23;20287;-77
2021/03/03 12:22:00;;;;;;;;;;;;;;;11.70;39.39;102182.69;6186741;23;19920;-76
2021/03/03 12:28:24;;;;;;;;;;;;;;;12.01;39.12;102164.75;6033960;23;19926;-76
2021/03/03 12:30:51;;;;;;;;;;;;;;;12.10;39.12;102163.78;6154815;23;19927;-76
2021/03/03 12:33:18;;;;;;;;;;;;;;;12.11;39.23;102154.94;6164235;23;20006;-77
2021/03/03 12:35:46;;;;;;;;;;;;;;;12.23;39.09;102141.50;6162698;23;19924;-76
2021/03/03 12:38:14;;;;;;;;;;;;;;;12.20;39.62;102143.31;6162145;23;20016;-76
2021/03/03 12:40:41;;;;;;;;;;;;;;;12.19;39.37;102142.44;6187727;23;19924;-76
2021/03/03 12:43:08;;;;;;;;;;;;;;;12.25;39.47;102130.88;6160584;23;20008;-76
2021/03/03 12:45:35;;;;;;;;;;;;;;;12.14;39.97;102131.00;6160575;23;19921;-76
2021/03/03 12:48:03;;;;;;;;;;;;;;;12.25;39.63;102121.16;6164519;23;20473;-77
2021/03/03 12:50:30;;;;;;;;;;;;;;;12.35;39.85;102113.94;6187822;23;19925;-76
2021/03/03 12:53:18;;;;;;;;;;;;;;;;;;;;;
2021/03/03 12:56:33;;;;;;;;;;;;;;;12.20;40.16;102088.50;6164902;23;20113;-76
2021/03/03 12:59:00;;;;;;;;;;;;;;;12.30;40.03;102078.63;6181091;23;19925;-76
2021/03/03 13:01:27;;;;;;;;;;;;;;;12.36;40.04;102077.69;6162128;23;19928;-76
2021/03/03 13:03:54;;;;;;;;;;;;;;;12.42;40.35;102070.50;6162891;23;19928;-78
2021/03/03 13:06:22;;;;;;;;;;;;;;;12.45;40.21;102069.59;6161841;23;19951;-76
2021/03/03 13:08:49;;;;;;;;;;;;;;;12.58;40.10;102063.19;6186788;23;19921;-76
2021/03/03 13:11:17;;;;;;;;;;;;;;;12.61;39.94;102067.59;6161029;23;19921;-76
2021/03/03 13:13:44;;;;;;;;;;;;;;;12.62;39.91;102067.56;6182098;23;19968;-77
2021/03/03 13:16:14;;;;;;;;;;;;;;;12.50;40.58;102066.84;6185995;23;19925;-76
2021/03/03 13:19:25;;;;;;;;;;;;;;;12.54;40.77;102045.56;6164373;23;19925;-76